createdAt,value
2018-09-30T00:01:30.595Z,95321.86
2018-09-30T00:03:56.949Z,95319.83
2018-09-30T00:06:23.279Z,95313.79
2018-09-30T00:08:49.667Z,95316.55
2018-09-30T00:11:16.054Z,95315.27
2018-09-30T00:13:42.479Z,95313.30
2018-09-30T00:16:08.868Z,95322.91
2018-09-30T00:18:35.279Z,95320.39
2018-09-30T00:21:01.632Z,95323.59
2018-09-30T00:23:28.025Z,95327.52
2018-09-30T00:25:54.368Z,95329.41
2018-09-30T00:28:20.737Z,95324.95
2018-09-30T00:30:47.098Z,95322.91
2018-09-30T00:33:13.516Z,95323.41
2018-09-30T00:35:39.918Z,95329.32
2018-09-30T00:38:06.356Z,95323.78
2018-09-30T00:40:32.703Z,95326.16
2018-09-30T00:42:59.080Z,95332.07
2018-09-30T00:45:25.443Z,95327.28
2018-09-30T00:47:51.773Z,95333.39
2018-09-30T00:50:18.103Z,95330.98
2018-09-30T00:52:44.536Z,95336.03
2018-09-30T00:55:10.972Z,95339.57
2018-09-30T00:57:37.304Z,95343.05
2018-09-30T01:00:03.696Z,95348.39
2018-09-30T01:02:30.075Z,95344.13
2018-09-30T01:04:56.419Z,95346.31
2018-09-30T01:07:22.754Z,95347.98
2018-09-30T01:09:49.156Z,95348.39
2018-09-30T01:12:15.514Z,95350.72
2018-09-30T01:14:41.882Z,95350.79
2018-09-30T01:17:08.267Z,95344.95
2018-09-30T01:19:34.613Z,95343.97
2018-09-30T01:22:01.016Z,95344.61
2018-09-30T01:24:27.382Z,95348.52
2018-09-30T01:26:53.851Z,95346.72
2018-09-30T01:29:20.316Z,95351.84
2018-09-30T01:31:46.683Z,95351.91
2018-09-30T01:34:13.041Z,95349.05
2018-09-30T01:36:39.404Z,95344.86
2018-09-30T01:39:05.739Z,95341.02
2018-09-30T01:41:32.104Z,95346.70
2018-09-30T01:43:58.460Z,95344.56
2018-09-30T01:46:24.849Z,95336.94
2018-09-30T01:48:51.191Z,95340.10
2018-09-30T01:51:17.523Z,95354.92
2018-09-30T01:53:43.895Z,95357.17
2018-09-30T01:56:10.227Z,95355.52
2018-09-30T01:58:36.618Z,95357.66
2018-09-30T02:01:02.960Z,95357.84
2018-09-30T02:03:29.366Z,95359.47
2018-09-30T02:05:55.749Z,95360.82
2018-09-30T02:08:22.122Z,95357.08
2018-09-30T02:10:48.519Z,95351.63
2018-09-30T02:13:14.924Z,95354.63
2018-09-30T02:15:41.304Z,95358.86
2018-09-30T02:18:07.630Z,95364.95
2018-09-30T02:20:33.983Z,95362.42
2018-09-30T02:23:00.377Z,95363.70
2018-09-30T02:25:26.769Z,95362.64
2018-09-30T02:27:53.103Z,95365.89
2018-09-30T02:30:19.437Z,95361.33
2018-09-30T02:32:45.844Z,95357.89
2018-09-30T02:35:12.247Z,95358.42
2018-09-30T02:37:38.580Z,95357.11
2018-09-30T02:40:04.915Z,95359.29
2018-09-30T02:42:31.258Z,95366.25
2018-09-30T02:44:57.643Z,95366.29
2018-09-30T02:47:24.107Z,95366.39
2018-09-30T02:49:50.442Z,95367.22
2018-09-30T02:52:16.816Z,95368.61
2018-09-30T02:54:43.198Z,95368.27
2018-09-30T02:57:09.556Z,95370.83
2018-09-30T02:59:35.961Z,95370.14
2018-09-30T03:02:02.327Z,95375.16
2018-09-30T03:04:28.699Z,95377.00
2018-09-30T03:06:55.049Z,95382.16
2018-09-30T03:09:21.461Z,95379.59
2018-09-30T03:11:47.850Z,95382.56
2018-09-30T03:14:14.193Z,95389.11
2018-09-30T03:16:40.547Z,95392.06
2018-09-30T03:19:06.859Z,95396.87
2018-09-30T03:21:33.191Z,95395.59
2018-09-30T03:23:59.584Z,95388.88
2018-09-30T03:26:25.911Z,95387.36
2018-09-30T03:28:52.313Z,95391.65
2018-09-30T03:31:18.668Z,95393.76
2018-09-30T03:33:45.017Z,95397.19
2018-09-30T03:36:11.403Z,95400.20
2018-09-30T03:38:37.806Z,95402.80
2018-09-30T03:41:04.252Z,95399.02
2018-09-30T03:43:30.644Z,95399.54
2018-09-30T03:45:57.050Z,95401.59
2018-09-30T03:48:23.415Z,95403.84
2018-09-30T03:50:49.750Z,95402.97
2018-09-30T03:53:16.136Z,95404.77
2018-09-30T03:55:42.477Z,95403.49
2018-09-30T03:58:08.884Z,95405.71
2018-09-30T04:00:35.229Z,95405.30
2018-09-30T04:03:01.572Z,95410.55
2018-09-30T04:05:27.968Z,95414.30
2018-09-30T04:07:54.311Z,95411.73
2018-09-30T04:10:20.724Z,95416.61
2018-09-30T04:12:47.077Z,95413.32
2018-09-30T04:15:13.457Z,95412.45
2018-09-30T04:17:39.798Z,95418.06
2018-09-30T04:20:06.259Z,95417.75
2018-09-30T04:22:32.604Z,95419.03
2018-09-30T04:24:58.971Z,95420.76
2018-09-30T04:27:25.360Z,95421.73
2018-09-30T04:29:51.707Z,95426.78
2018-09-30T04:32:18.061Z,95431.14
2018-09-30T04:34:44.447Z,95435.39
2018-09-30T04:37:10.801Z,95438.41
2018-09-30T04:39:37.170Z,95441.00
2018-09-30T04:42:03.552Z,95443.15
2018-09-30T04:44:29.941Z,95441.97
2018-09-30T04:46:56.325Z,95440.27
2018-09-30T04:49:22.669Z,95440.38
2018-09-30T04:51:49.004Z,95445.46
2018-09-30T04:54:15.344Z,95447.19
2018-09-30T04:56:41.726Z,95444.31
2018-09-30T04:59:08.052Z,95441.31
2018-09-30T05:01:34.412Z,95440.48
2018-09-30T05:04:00.747Z,95443.77
2018-09-30T05:06:27.082Z,95447.33
2018-09-30T05:08:53.461Z,95442.59
2018-09-30T05:11:19.832Z,95438.30
2018-09-30T05:13:46.250Z,95443.83
2018-09-30T05:16:12.638Z,95443.66
2018-09-30T05:18:38.960Z,95447.54
2018-09-30T05:21:05.292Z,95448.96
2018-09-30T05:23:31.616Z,95449.66
2018-09-30T05:25:57.945Z,95457.23
2018-09-30T05:28:24.296Z,95455.54
2018-09-30T05:30:50.688Z,95457.76
2018-09-30T05:33:17.051Z,95455.16
2018-09-30T05:35:43.388Z,95464.85
2018-09-30T05:38:09.746Z,95461.11
2018-09-30T05:40:36.147Z,95467.62
2018-09-30T05:43:02.480Z,95465.47
2018-09-30T05:45:28.891Z,95465.75
2018-09-30T05:47:55.291Z,95463.30
2018-09-30T05:50:21.604Z,95466.96
2018-09-30T05:52:47.957Z,95461.12
2018-09-30T05:55:14.304Z,95461.77
2018-09-30T05:57:40.839Z,95460.88
2018-09-30T06:00:07.192Z,95463.95
2018-09-30T06:02:33.556Z,95462.46
2018-09-30T06:04:59.891Z,95466.27
2018-09-30T06:07:26.358Z,95474.61
2018-09-30T06:09:52.752Z,95469.87
2018-09-30T06:12:19.111Z,95477.10
2018-09-30T06:14:45.460Z,95473.53
2018-09-30T06:17:11.810Z,95474.68
2018-09-30T06:19:38.179Z,95477.17
2018-09-30T06:22:04.574Z,95475.67
2018-09-30T06:24:31.074Z,95478.97
2018-09-30T06:26:57.421Z,95482.59
2018-09-30T06:29:23.809Z,95479.41
2018-09-30T06:31:50.804Z,95485.26
2018-09-30T06:34:17.173Z,95488.16
2018-09-30T06:36:43.537Z,95493.56
2018-09-30T06:39:09.937Z,95494.81
2018-09-30T06:41:36.286Z,95491.38
2018-09-30T06:44:02.702Z,95499.97
2018-09-30T06:46:29.100Z,95496.13
2018-09-30T06:48:55.548Z,95494.88
2018-09-30T06:51:21.944Z,95494.84
2018-09-30T06:53:48.365Z,95495.71
2018-09-30T06:56:14.716Z,95497.94
2018-09-30T06:58:41.101Z,95500.15
2018-09-30T07:01:07.563Z,95493.29
2018-09-30T07:03:34.102Z,95500.15
2018-09-30T07:06:00.519Z,95496.30
2018-09-30T07:08:26.879Z,95505.24
2018-09-30T07:10:53.287Z,95502.16
2018-09-30T07:13:19.628Z,95504.90
2018-09-30T07:15:46.002Z,95511.27
2018-09-30T07:18:12.361Z,95507.42
2018-09-30T07:20:38.834Z,95502.27
2018-09-30T07:23:05.200Z,95503.86
2018-09-30T07:25:31.563Z,95506.52
2018-09-30T07:27:58.021Z,95509.40
2018-09-30T07:30:24.447Z,95511.95
2018-09-30T07:32:50.858Z,95513.73
2018-09-30T07:35:17.197Z,95511.06
2018-09-30T07:37:43.637Z,95512.00
2018-09-30T07:40:09.968Z,95516.70
2018-09-30T07:42:36.317Z,95517.02
2018-09-30T07:45:02.844Z,95512.75
2018-09-30T07:47:29.268Z,95514.80
2018-09-30T07:49:55.622Z,95514.80
2018-09-30T07:52:22.047Z,95518.19
2018-09-30T07:54:48.476Z,95524.98
2018-09-30T07:57:14.907Z,95530.08
2018-09-30T07:59:41.288Z,95528.27
2018-09-30T08:02:07.728Z,95529.14
2018-09-30T08:04:34.057Z,95526.09
2018-09-30T08:07:00.437Z,95523.52
2018-09-30T08:09:26.954Z,95526.50
2018-09-30T08:11:53.458Z,95522.66
2018-09-30T08:14:19.788Z,95523.11
2018-09-30T08:16:46.180Z,95527.61
2018-09-30T08:19:12.579Z,95524.67
2018-09-30T08:21:39.013Z,95523.00
2018-09-30T08:24:05.434Z,95523.24
2018-09-30T08:26:31.747Z,95524.94
2018-09-30T08:28:58.203Z,95530.48
2018-09-30T08:31:24.542Z,95524.00
2018-09-30T08:33:50.872Z,95524.83
2018-09-30T08:36:17.227Z,95529.96
2018-09-30T08:38:43.625Z,95528.67
2018-09-30T08:41:10.011Z,95528.58
2018-09-30T08:43:36.415Z,95524.73
2018-09-30T08:46:02.756Z,95520.47
2018-09-30T08:48:29.132Z,95517.91
2018-09-30T08:50:55.534Z,95519.15
2018-09-30T08:53:21.926Z,95515.75
2018-09-30T08:55:48.341Z,95516.86
2018-09-30T08:58:14.661Z,95515.57
2018-09-30T09:00:41.128Z,95518.97
2018-09-30T09:03:07.604Z,95517.20
2018-09-30T09:05:33.909Z,95512.11
2018-09-30T09:08:00.259Z,95510.78
2018-09-30T09:10:26.658Z,95504.65
2018-09-30T09:12:53.005Z,95502.13
2018-09-30T09:15:19.360Z,95498.20
2018-09-30T09:17:45.768Z,95494.02
2018-09-30T09:20:12.174Z,95490.92
2018-09-30T09:22:38.506Z,95482.33
2018-09-30T09:25:04.909Z,95487.34
2018-09-30T09:27:31.312Z,95488.97
2018-09-30T09:29:57.669Z,95488.55
2018-09-30T09:32:24.063Z,95494.59
2018-09-30T09:34:50.467Z,95486.37
2018-09-30T09:37:17.008Z,95490.25
2018-09-30T09:39:43.989Z,95493.50
2018-09-30T09:42:10.332Z,95490.48
2018-09-30T09:44:36.759Z,95489.20
2018-09-30T09:47:03.196Z,95479.77
2018-09-30T09:49:29.548Z,95479.77
2018-09-30T09:51:55.877Z,95481.85
2018-09-30T09:54:22.222Z,95485.73
2018-09-30T09:56:48.588Z,95482.19
2018-09-30T09:59:15.039Z,95490.27
2018-09-30T10:01:41.366Z,95491.14
2018-09-30T10:04:07.704Z,95486.00
2018-09-30T10:06:34.092Z,95485.70
2018-09-30T10:09:00.444Z,95487.39
2018-09-30T10:11:26.858Z,95486.45
2018-09-30T10:13:53.414Z,95483.44
2018-09-30T10:16:19.731Z,95484.03
2018-09-30T10:18:46.142Z,95479.22
2018-09-30T10:21:12.472Z,95483.13
2018-09-30T10:23:38.856Z,95481.05
2018-09-30T10:26:05.300Z,95472.53
2018-09-30T10:28:31.698Z,95471.17
2018-09-30T10:30:58.064Z,95473.63
2018-09-30T10:33:24.486Z,95481.16
2018-09-30T10:35:50.962Z,95476.27
2018-09-30T10:38:17.372Z,95483.20
2018-09-30T10:40:43.759Z,95475.97
2018-09-30T10:43:10.159Z,95471.59
2018-09-30T10:45:36.484Z,95467.36
2018-09-30T10:48:02.898Z,95469.48
2018-09-30T10:50:29.236Z,95463.25
2018-09-30T10:52:55.652Z,95461.82
2018-09-30T10:55:22.100Z,95458.61
2018-09-30T10:57:48.408Z,95465.03
2018-09-30T11:00:14.808Z,95458.20
2018-09-30T11:02:41.219Z,95456.57
2018-09-30T11:05:07.578Z,95455.92
2018-09-30T11:07:33.972Z,95455.36
2018-09-30T11:10:00.399Z,95457.39
2018-09-30T11:12:26.776Z,95454.08
2018-09-30T11:14:53.166Z,95452.49
2018-09-30T11:17:19.536Z,95452.98
2018-09-30T11:19:45.867Z,95446.57
2018-09-30T11:22:12.196Z,95447.44
2018-09-30T11:24:38.589Z,95446.68
2018-09-30T11:27:04.962Z,95441.97
2018-09-30T11:29:31.323Z,95437.78
2018-09-30T11:31:57.682Z,95438.16
2018-09-30T11:34:24.050Z,95436.91
2018-09-30T11:36:50.380Z,95437.25
2018-09-30T11:39:16.765Z,95439.89
2018-09-30T11:41:43.107Z,95436.50
2018-09-30T11:44:09.476Z,95436.95
2018-09-30T11:46:35.812Z,95431.41
2018-09-30T11:49:02.208Z,95434.80
2018-09-30T11:51:28.598Z,95431.52
2018-09-30T11:53:54.964Z,95431.48
2018-09-30T11:56:21.316Z,95435.73
2018-09-30T11:58:47.664Z,95428.98
2018-09-30T12:01:14.144Z,95425.59
2018-09-30T12:03:40.496Z,95422.58
2018-09-30T12:06:06.824Z,95426.05
2018-09-30T12:08:33.165Z,95427.44
2018-09-30T12:10:59.561Z,95427.74
2018-09-30T12:13:25.882Z,95421.48
2018-09-30T12:15:52.221Z,95428.27
2018-09-30T12:18:18.572Z,95424.87
2018-09-30T12:20:44.924Z,95420.61
2018-09-30T12:23:11.329Z,95423.62
2018-09-30T12:25:37.676Z,95419.05
2018-09-30T12:28:04.040Z,95415.21
2018-09-30T12:30:30.449Z,95414.38
2018-09-30T12:32:56.764Z,95413.06
2018-09-30T12:35:23.191Z,95408.05
2018-09-30T12:37:49.538Z,95409.78
2018-09-30T12:40:15.897Z,95405.41
2018-09-30T12:42:42.264Z,95401.56
2018-09-30T12:45:08.657Z,95406.00
2018-09-30T12:47:35.123Z,95401.70
2018-09-30T12:50:01.500Z,95401.19
2018-09-30T12:52:27.856Z,95396.06
2018-09-30T12:54:54.223Z,95394.40
2018-09-30T12:57:20.565Z,95395.64
2018-09-30T12:59:46.884Z,95396.44
2018-09-30T13:02:13.272Z,95394.81
2018-09-30T13:04:39.611Z,95390.63
2018-09-30T13:07:05.948Z,95389.00
2018-09-30T13:09:32.299Z,95385.91
2018-09-30T13:11:58.691Z,95388.59
2018-09-30T13:14:25.073Z,95385.12
2018-09-30T13:16:51.468Z,95392.25
2018-09-30T13:19:17.860Z,95389.80
2018-09-30T13:21:44.233Z,95385.61
2018-09-30T13:24:10.633Z,95384.25
2018-09-30T13:26:37.040Z,95379.58
2018-09-30T13:29:03.419Z,95382.97
2018-09-30T13:31:29.808Z,95378.33
2018-09-30T13:33:56.162Z,95370.30
2018-09-30T13:36:22.587Z,95371.12
2018-09-30T13:38:48.958Z,95366.80
2018-09-30T13:41:15.393Z,95367.63
2018-09-30T13:43:41.678Z,95366.34
2018-09-30T13:46:08.080Z,95359.63
2018-09-30T13:48:34.411Z,95359.25
2018-09-30T13:51:00.805Z,95359.52
2018-09-30T13:53:27.136Z,95360.88
2018-09-30T13:55:53.474Z,95364.38
2018-09-30T13:58:19.900Z,95365.20
2018-09-30T14:00:46.234Z,95362.64
2018-09-30T14:03:12.635Z,95360.57
2018-09-30T14:05:39.041Z,95367.84
2018-09-30T14:08:05.388Z,95359.74
2018-09-30T14:10:31.717Z,95360.64
2018-09-30T14:12:58.065Z,95364.48
2018-09-30T14:15:24.565Z,95362.30
2018-09-30T14:17:50.997Z,95366.16
2018-09-30T14:20:17.368Z,95356.80
2018-09-30T14:22:43.724Z,95359.36
2018-09-30T14:25:10.058Z,95367.84
2018-09-30T14:27:36.532Z,95367.05
2018-09-30T14:30:02.942Z,95366.26
2018-09-30T14:32:29.320Z,95367.54
2018-09-30T14:34:55.690Z,95363.70
2018-09-30T14:37:22.043Z,95366.41
2018-09-30T14:39:48.385Z,95368.09
2018-09-30T14:42:14.773Z,95364.30
2018-09-30T14:44:41.151Z,95368.86
2018-09-30T14:47:07.488Z,95369.49
2018-09-30T14:49:33.905Z,95368.97
2018-09-30T14:52:00.277Z,95372.51
2018-09-30T14:54:26.768Z,95371.71
2018-09-30T14:56:53.241Z,95373.86
2018-09-30T14:59:19.576Z,95373.07
2018-09-30T15:01:45.904Z,95374.42
2018-09-30T15:04:12.271Z,95373.94
2018-09-30T15:06:38.633Z,95370.09
2018-09-30T15:09:05.069Z,95369.72
2018-09-30T15:11:31.412Z,95373.11
2018-09-30T15:13:57.766Z,95373.25
2018-09-30T15:16:24.101Z,95369.82
2018-09-30T15:18:50.459Z,95371.97
2018-09-30T15:21:16.792Z,95368.99
2018-09-30T15:23:43.142Z,95372.15
2018-09-30T15:26:09.559Z,95376.45
2018-09-30T15:28:35.883Z,95371.32
2018-09-30T15:31:02.213Z,95371.36
2018-09-30T15:33:28.664Z,95365.33
2018-09-30T15:35:55.105Z,95367.09
2018-09-30T15:38:21.448Z,95369.25
2018-09-30T15:40:47.873Z,95366.94
2018-09-30T15:43:14.222Z,95366.45
2018-09-30T15:45:40.611Z,95375.91
2018-09-30T15:48:06.999Z,95372.09
2018-09-30T15:50:33.440Z,95375.11
2018-09-30T15:52:59.770Z,95378.73
2018-09-30T15:55:26.096Z,95375.60
2018-09-30T15:57:52.433Z,95373.59
2018-09-30T16:00:19.143Z,95366.81
2018-09-30T16:02:45.613Z,95365.42
2018-09-30T16:05:11.966Z,95369.80
2018-09-30T16:07:38.295Z,95369.89
2018-09-30T16:10:04.629Z,95371.11
2018-09-30T16:12:30.992Z,95367.75
2018-09-30T16:14:57.321Z,95369.89
2018-09-30T16:17:23.697Z,95366.65
2018-09-30T16:19:50.050Z,95367.09
2018-09-30T16:22:16.474Z,95369.55
2018-09-30T16:24:42.812Z,95368.00
2018-09-30T16:27:09.186Z,95370.67
2018-09-30T16:29:35.629Z,95367.21
2018-09-30T16:32:01.973Z,95363.36
2018-09-30T16:34:28.442Z,95368.14
2018-09-30T16:36:54.853Z,95363.96
2018-09-30T16:39:21.204Z,95364.83
2018-09-30T16:41:47.603Z,95368.33
2018-09-30T16:44:13.931Z,95367.05
2018-09-30T16:46:40.308Z,95367.56
2018-09-30T16:49:06.636Z,95366.70
2018-09-30T16:51:32.964Z,95369.78
2018-09-30T16:53:59.475Z,95369.03
2018-09-30T16:56:25.819Z,95374.53
2018-09-30T16:58:52.207Z,95367.30
2018-09-30T17:01:18.553Z,95372.38
2018-09-30T17:03:44.923Z,95375.53
2018-09-30T17:06:11.317Z,95370.41
2018-09-30T17:08:37.788Z,95373.87
2018-09-30T17:11:04.148Z,95374.84
2018-09-30T17:13:30.480Z,95311.50
2018-09-30T17:15:57.008Z,95378.69
2018-09-30T17:18:23.650Z,95373.64
2018-09-30T17:20:50.008Z,95376.66
2018-09-30T17:23:16.434Z,95383.05
2018-09-30T17:25:42.814Z,95380.15
2018-09-30T17:28:09.266Z,95378.80
2018-09-30T17:30:35.585Z,95373.82
2018-09-30T17:33:01.924Z,95377.97
2018-09-30T17:35:28.260Z,95372.61
2018-09-30T17:37:54.634Z,95378.52
2018-09-30T17:40:21.046Z,95374.78
2018-09-30T17:42:47.404Z,95378.25
2018-09-30T17:45:13.744Z,95379.42
2018-09-30T17:47:40.156Z,95375.73
2018-09-30T17:50:06.509Z,95377.45
2018-09-30T17:52:32.913Z,95377.42
2018-09-30T17:54:59.252Z,95377.45
2018-09-30T17:57:25.591Z,95383.52
2018-09-30T17:59:51.976Z,95381.86
2018-09-30T18:02:18.355Z,95382.72
2018-09-30T18:04:44.700Z,95380.61
2018-09-30T18:07:11.136Z,95378.95
2018-09-30T18:09:37.498Z,95383.63
2018-09-30T18:12:03.830Z,95384.07
2018-09-30T18:14:30.228Z,95384.48
2018-09-30T18:16:56.632Z,95376.91
2018-09-30T18:19:23.027Z,95381.63
2018-09-30T18:21:49.372Z,95380.75
2018-09-30T18:24:15.789Z,95381.62
2018-09-30T18:26:42.152Z,95385.91
2018-09-30T18:29:08.587Z,95386.43
2018-09-30T18:31:34.979Z,95385.50
2018-09-30T18:34:01.383Z,95382.66
2018-09-30T18:36:27.750Z,95383.04
2018-09-30T18:38:54.163Z,95379.61
2018-09-30T18:41:20.489Z,95382.28
2018-09-30T18:43:46.880Z,95376.26
2018-09-30T18:46:13.275Z,95375.50
2018-09-30T18:48:39.684Z,95370.86
2018-09-30T18:51:06.034Z,95372.97
2018-09-30T18:53:32.378Z,95364.91
2018-09-30T18:55:58.918Z,95368.34
2018-09-30T18:58:25.259Z,95364.42
2018-09-30T19:00:51.702Z,95366.61
2018-09-30T19:03:18.131Z,95358.95
2018-09-30T19:05:44.461Z,95356.40
2018-09-30T19:08:10.851Z,95355.22
2018-09-30T19:10:37.186Z,95354.80
2018-09-30T19:13:03.589Z,95355.74
2018-09-30T19:15:30.052Z,95344.77
2018-09-30T19:17:56.530Z,95343.39
2018-09-30T19:20:23.066Z,95341.21
2018-09-30T19:22:49.492Z,95347.64
2018-09-30T19:25:15.881Z,95348.52
2018-09-30T19:27:42.246Z,95340.11
2018-09-30T19:30:08.630Z,95345.27
2018-09-30T19:32:35.031Z,95338.93
2018-09-30T19:35:01.427Z,95336.27
2018-09-30T19:37:27.777Z,95336.75
2018-09-30T19:39:54.112Z,95337.58
2018-09-30T19:42:20.440Z,95335.99
2018-09-30T19:44:46.872Z,95333.39
2018-09-30T19:47:13.748Z,95332.91
2018-09-30T19:49:40.109Z,95335.99
2018-09-30T19:52:06.541Z,95328.37
2018-09-30T19:54:32.924Z,95326.16
2018-09-30T19:56:59.368Z,95322.91
2018-09-30T19:59:25.719Z,95321.19
2018-09-30T20:01:52.108Z,95317.72
2018-09-30T20:04:18.506Z,95318.63
2018-09-30T20:06:44.908Z,95315.13
2018-09-30T20:09:11.409Z,95313.13
2018-09-30T20:11:37.743Z,95314.81
2018-09-30T20:14:04.177Z,95308.88
2018-09-30T20:16:30.605Z,95308.00
2018-09-30T20:18:57.006Z,95311.47
2018-09-30T20:21:23.358Z,95304.23
2018-09-30T20:23:49.793Z,95305.52
2018-09-30T20:26:16.153Z,95298.39
2018-09-30T20:28:42.666Z,95305.10
2018-09-30T20:31:08.958Z,95296.14
2018-09-30T20:33:35.342Z,95297.11
2018-09-30T20:36:01.804Z,95294.62
2018-09-30T20:38:28.236Z,95291.20
2018-09-30T20:40:54.591Z,95290.84
2018-09-30T20:43:21.005Z,95291.20
2018-09-30T20:45:47.343Z,95282.69
2018-09-30T20:48:13.768Z,95278.05
2018-09-30T20:50:40.096Z,95275.84
2018-09-30T20:53:06.454Z,95283.48
2018-09-30T20:55:32.940Z,95277.26
2018-09-30T20:57:59.344Z,95278.47
2018-09-30T21:00:25.724Z,95278.09
2018-09-30T21:02:52.084Z,95278.91
2018-09-30T21:05:18.525Z,95274.70
2018-09-30T21:07:44.891Z,95266.95
2018-09-30T21:10:11.238Z,95272.45
2018-09-30T21:12:37.612Z,95265.29
2018-09-30T21:15:03.955Z,95262.77
2018-09-30T21:17:30.326Z,95264.49
2018-09-30T21:19:56.661Z,95256.51
2018-09-30T21:22:23.058Z,95255.23
2018-09-30T21:24:49.445Z,95251.39
2018-09-30T21:27:15.871Z,95248.83
2018-09-30T21:29:42.223Z,95248.86
2018-09-30T21:32:08.639Z,95248.90
2018-09-30T21:34:34.987Z,95243.33
2018-09-30T21:37:01.457Z,95243.36
2018-09-30T21:39:27.800Z,95246.75
2018-09-30T21:41:54.259Z,95239.53
2018-09-30T21:44:20.625Z,95231.02
2018-09-30T21:46:46.991Z,95231.91
2018-09-30T21:49:13.328Z,95234.47
2018-09-30T21:51:39.722Z,95235.69
2018-09-30T21:54:06.086Z,95226.38
2018-09-30T21:56:32.447Z,95221.30
2018-09-30T21:58:58.854Z,95214.86
2018-09-30T22:01:25.283Z,95212.48
2018-09-30T22:03:51.580Z,95213.70
2018-09-30T22:06:17.972Z,95214.97
2018-09-30T22:08:44.337Z,95208.54
2018-09-30T22:11:10.809Z,95208.09
2018-09-30T22:13:37.128Z,95208.58
2018-09-30T22:16:03.526Z,95205.26
2018-09-30T22:18:29.908Z,95201.73
2018-09-30T22:20:56.228Z,95200.97
2018-09-30T22:23:22.632Z,95197.13
2018-09-30T22:25:49.021Z,95192.05
2018-09-30T22:28:15.399Z,95189.11
2018-09-30T22:30:41.819Z,95190.01
2018-09-30T22:33:08.217Z,95187.56
2018-09-30T22:35:34.606Z,95185.38
2018-09-30T22:38:00.996Z,95194.38
2018-09-30T22:40:27.471Z,95181.47
2018-09-30T22:42:53.781Z,95184.09
2018-09-30T22:45:20.170Z,95182.89
2018-09-30T22:47:46.580Z,95185.41
2018-09-30T22:50:13.084Z,95185.48
2018-09-30T22:52:39.465Z,95177.32
2018-09-30T22:55:05.808Z,95183.30
2018-09-30T22:57:32.174Z,95177.32
2018-09-30T22:59:58.512Z,95175.70
2018-09-30T23:02:24.896Z,95174.42
2018-09-30T23:04:51.252Z,95169.30
2018-09-30T23:07:17.766Z,95165.47
2018-09-30T23:09:44.134Z,95161.70
2018-09-30T23:12:10.469Z,95161.31
2018-09-30T23:14:36.869Z,95166.06
2018-09-30T23:17:03.201Z,95164.25
2018-09-30T23:19:29.570Z,95164.74
2018-09-30T23:21:55.904Z,95158.30
2018-09-30T23:24:22.292Z,95155.41
2018-09-30T23:26:48.684Z,95154.61
2018-09-30T23:29:15.141Z,95154.65
2018-09-30T23:31:41.495Z,95150.29
2018-09-30T23:34:07.908Z,95147.05
2018-09-30T23:36:34.264Z,95144.03
2018-09-30T23:39:00.664Z,95146.14
2018-09-30T23:41:27.004Z,95134.22
2018-09-30T23:43:53.332Z,95137.16
2018-09-30T23:46:19.690Z,95135.12
2018-09-30T23:48:46.089Z,95130.41
2018-09-30T23:51:12.676Z,95134.29
2018-09-30T23:53:39.061Z,95129.66
2018-09-30T23:56:05.443Z,95126.61
2018-09-30T23:58:31.816Z,95118.55
